sensor_id;sensor_type;location;lat;lon;timestamp;pressure;altitude;pressure_sealevel;temperature;humidity
9460;BME280;4768;42.664;23.240;2022-09-02T00:01:18;-9932.88;;;18.26;100.00
9460;BME280;4768;42.664;23.240;2022-09-02T00:03:47;-9940.16;;;18.51;100.00
9460;BME280;4768;42.664;23.240;2022-09-02T00:06:14;-9938.75;;;18.46;100.00
9460;BME280;4768;42.664;23.240;2022-09-02T00:08:41;-9938.88;;;18.46;100.00
9460;BME280;4768;42.664;23.240;2022-09-02T00:11:13;-9940.31;;;18.51;100.00
9460;BME280;4768;42.664;23.240;2022-09-02T00:13:41;-9941.44;;;18.55;100.00
9460;BME280;4768;42.664;23.240;2022-09-02T00:16:10;-9938.31;;;18.44;100.00
9460;BME280;4768;42.664;23.240;2022-09-02T00:18:37;-9937.31;;;18.41;100.00
9460;BME280;4768;42.664;23.240;2022-09-02T00:21:05;-9937.16;;;18.41;100.00
9460;BME280;4768;42.664;23.240;2022-09-02T00:23:31;-9939.75;;;18.49;100.00
9460;BME280;4768;42.664;23.240;2022-09-02T00:25:59;-9939.59;;;18.49;100.00
9460;BME280;4768;42.664;23.240;2022-09-02T00:28:25;-9938.88;;;18.46;100.00
9460;BME280;4768;42.664;23.240;2022-09-02T00:30:52;-9937.31;;;18.41;100.00
9460;BME280;4768;42.664;23.240;2022-09-02T00:33:20;-9937.03;;;18.40;100.00
9460;BME280;4768;42.664;23.240;2022-09-02T00:35:48;-9938.75;;;18.46;100.00
9460;BME280;4768;42.664;23.240;2022-09-02T00:38:15;-9940.59;;;18.52;100.00
9460;BME280;4768;42.664;23.240;2022-09-02T00:40:43;-9942.16;;;18.58;100.00
9460;BME280;4768;42.664;23.240;2022-09-02T00:43:11;-9943.88;;;18.64;100.00
9460;BME280;4768;42.664;23.240;2022-09-02T00:45:38;-9949.72;;;18.84;100.00
9460;BME280;4768;42.664;23.240;2022-09-02T00:48:04;-9950.56;;;18.87;100.00
9460;BME280;4768;42.664;23.240;2022-09-02T00:50:34;-9950.44;;;18.87;100.00
9460;BME280;4768;42.664;23.240;2022-09-02T00:53:05;-9951.44;;;18.90;100.00
9460;BME280;4768;42.664;23.240;2022-09-02T00:55:36;-9951.16;;;18.89;100.00
9460;BME280;4768;42.664;23.240;2022-09-02T00:58:07;-9950.44;;;18.87;100.00
9460;BME280;4768;42.664;23.240;2022-09-02T01:00:38;-9951.84;;;18.91;100.00
9460;BME280;4768;42.664;23.240;2022-09-02T01:03:09;-9953.28;;;18.96;100.00
9460;BME280;4768;42.664;23.240;2022-09-02T01:05:40;-9952.28;;;18.93;100.00
9460;BME280;4768;42.664;23.240;2022-09-02T01:08:10;-9950.16;;;18.86;100.00
9460;BME280;4768;42.664;23.240;2022-09-02T01:10:38;-9948.28;;;18.79;100.00
9460;BME280;4768;42.664;23.240;2022-09-02T01:13:08;-9947.31;;;18.76;100.00
9460;BME280;4768;42.664;23.240;2022-09-02T01:15:37;-9947.00;;;18.75;100.00
9460;BME280;4768;42.664;23.240;2022-09-02T01:18:09;-9947.31;;;18.76;100.00
9460;BME280;4768;42.664;23.240;2022-09-02T01:20:39;-9946.44;;;18.73;100.00
9460;BME280;4768;42.664;23.240;2022-09-02T01:23:08;-9943.44;;;18.62;100.00
9460;BME280;4768;42.664;23.240;2022-09-02T01:25:35;-9938.44;;;18.45;100.00
9460;BME280;4768;42.664;23.240;2022-09-02T01:28:05;-9934.19;;;18.30;100.00
9460;BME280;4768;42.664;23.240;2022-09-02T01:30:33;-9926.75;;;18.04;100.00
9460;BME280;4768;42.664;23.240;2022-09-02T01:33:01;-9903.09;;;17.22;100.00
9460;BME280;4768;42.664;23.240;2022-09-02T01:35:28;-9886.41;;;16.64;100.00
9460;BME280;4768;42.664;23.240;2022-09-02T01:37:57;-9881.28;;;16.46;100.00
9460;BME280;4768;42.664;23.240;2022-09-02T01:40:26;-9875.44;;;16.26;100.00
9460;BME280;4768;42.664;23.240;2022-09-02T01:42:56;-9876.16;;;16.29;100.00
9460;BME280;4768;42.664;23.240;2022-09-02T01:45:24;-9877.28;;;16.33;100.00
9460;BME280;4768;42.664;23.240;2022-09-02T01:47:51;-9878.28;;;16.36;100.00
9460;BME280;4768;42.664;23.240;2022-09-02T01:50:18;-9875.72;;;16.27;100.00
9460;BME280;4768;42.664;23.240;2022-09-02T01:52:45;-9876.72;;;16.31;100.00
9460;BME280;4768;42.664;23.240;2022-09-02T01:55:12;-9877.00;;;16.32;100.00
9460;BME280;4768;42.664;23.240;2022-09-02T01:57:40;-9876.28;;;16.29;100.00
9460;BME280;4768;42.664;23.240;2022-09-02T02:00:09;-9878.28;;;16.36;100.00
9460;BME280;4768;42.664;23.240;2022-09-02T02:02:37;-9881.28;;;16.46;100.00
9460;BME280;4768;42.664;23.240;2022-09-02T02:05:04;-9878.84;;;16.38;100.00
9460;BME280;4768;42.664;23.240;2022-09-02T02:07:31;-9881.56;;;16.47;100.00
9460;BME280;4768;42.664;23.240;2022-09-02T02:09:58;-9882.69;;;16.51;100.00
9460;BME280;4768;42.664;23.240;2022-09-02T02:12:24;-9883.13;;;16.53;100.00
9460;BME280;4768;42.664;23.240;2022-09-02T02:14:52;-9882.28;;;16.50;100.00
9460;BME280;4768;42.664;23.240;2022-09-02T02:17:19;-9881.56;;;16.47;100.00
9460;BME280;4768;42.664;23.240;2022-09-02T02:19:46;-9879.41;;;16.40;100.00
9460;BME280;4768;42.664;23.240;2022-09-02T02:22:12;-9876.84;;;16.31;100.00
9460;BME280;4768;42.664;23.240;2022-09-02T02:24:39;-9878.72;;;16.38;100.00
9460;BME280;4768;42.664;23.240;2022-09-02T02:27:06;-9878.28;;;16.36;100.00
9460;BME280;4768;42.664;23.240;2022-09-02T02:29:33;-9882.13;;;16.49;100.00
9460;BME280;4768;42.664;23.240;2022-09-02T02:32:02;-9882.97;;;16.52;100.00
9460;BME280;4768;42.664;23.240;2022-09-02T02:34:28;-9885.97;;;16.63;100.00
9460;BME280;4768;42.664;23.240;2022-09-02T02:36:55;-9885.41;;;16.61;100.00
9460;BME280;4768;42.664;23.240;2022-09-02T02:39:22;-9882.69;;;16.51;100.00
9460;BME280;4768;42.664;23.240;2022-09-02T02:41:49;-9894.09;;;16.91;100.00
9460;BME280;4768;42.664;23.240;2022-09-02T02:44:16;-9892.25;;;16.85;100.00
9460;BME280;4768;42.664;23.240;2022-09-02T02:46:43;-9889.81;;;16.76;100.00
9460;BME280;4768;42.664;23.240;2022-09-02T02:49:11;-9892.97;;;16.87;100.00
9460;BME280;4768;42.664;23.240;2022-09-02T02:51:38;-9897.66;;;17.03;100.00
9460;BME280;4768;42.664;23.240;2022-09-02T02:54:05;-9896.22;;;16.98;100.00
9460;BME280;4768;42.664;23.240;2022-09-02T02:56:32;-9888.41;;;16.71;100.00
9460;BME280;4768;42.664;23.240;2022-09-02T02:58:59;-9890.41;;;16.78;100.00
9460;BME280;4768;42.664;23.240;2022-09-02T03:01:28;-9888.09;;;16.70;100.00
9460;BME280;4768;42.664;23.240;2022-09-02T03:03:54;-9885.13;;;16.60;100.00
9460;BME280;4768;42.664;23.240;2022-09-02T03:06:23;-9883.84;;;16.55;100.00
9460;BME280;4768;42.664;23.240;2022-09-02T03:08:50;-9890.53;;;16.79;100.00
9460;BME280;4768;42.664;23.240;2022-09-02T03:11:18;-9889.97;;;16.77;100.00
9460;BME280;4768;42.664;23.240;2022-09-02T03:13:47;-9887.53;;;16.68;100.00
9460;BME280;4768;42.664;23.240;2022-09-02T03:16:14;-9884.69;;;16.58;100.00
9460;BME280;4768;42.664;23.240;2022-09-02T03:18:40;-9886.41;;;16.64;100.00
9460;BME280;4768;42.664;23.240;2022-09-02T03:21:08;-9885.53;;;16.61;100.00
9460;BME280;4768;42.664;23.240;2022-09-02T03:23:37;-9881.28;;;16.46;100.00
9460;BME280;4768;42.664;23.240;2022-09-02T03:26:08;-9881.69;;;16.48;100.00
9460;BME280;4768;42.664;23.240;2022-09-02T03:28:36;-9884.25;;;16.57;100.00
9460;BME280;4768;42.664;23.240;2022-09-02T03:31:03;-9882.84;;;16.52;100.00
9460;BME280;4768;42.664;23.240;2022-09-02T03:33:30;-9883.28;;;16.53;100.00
9460;BME280;4768;42.664;23.240;2022-09-02T03:35:57;-9882.28;;;16.50;100.00
9460;BME280;4768;42.664;23.240;2022-09-02T03:38:24;-9883.13;;;16.53;100.00
9460;BME280;4768;42.664;23.240;2022-09-02T03:40:52;-9884.69;;;16.58;100.00
9460;BME280;4768;42.664;23.240;2022-09-02T03:43:19;-9885.41;;;16.61;100.00
9460;BME280;4768;42.664;23.240;2022-09-02T03:45:46;-9884.84;;;16.59;100.00
9460;BME280;4768;42.664;23.240;2022-09-02T03:48:13;-9884.97;;;16.59;100.00
9460;BME280;4768;42.664;23.240;2022-09-02T03:50:42;-9887.69;;;16.69;100.00
9460;BME280;4768;42.664;23.240;2022-09-02T03:53:11;-9885.25;;;16.60;100.00
9460;BME280;4768;42.664;23.240;2022-09-02T03:55:38;-9884.69;;;16.58;100.00
9460;BME280;4768;42.664;23.240;2022-09-02T03:58:07;-9883.56;;;16.54;100.00
9460;BME280;4768;42.664;23.240;2022-09-02T04:00:34;-9883.56;;;16.54;100.00
9460;BME280;4768;42.664;23.240;2022-09-02T04:03:01;-9884.56;;;16.58;100.00
9460;BME280;4768;42.664;23.240;2022-09-02T04:05:29;-9880.28;;;16.43;100.00
9460;BME280;4768;42.664;23.240;2022-09-02T04:07:55;-9878.13;;;16.36;100.00
9460;BME280;4768;42.664;23.240;2022-09-02T04:10:22;-9877.72;;;16.34;100.00
9460;BME280;4768;42.664;23.240;2022-09-02T04:12:50;-9878.56;;;16.37;100.00
9460;BME280;4768;42.664;23.240;2022-09-02T04:15:19;-9879.00;;;16.39;100.00
9460;BME280;4768;42.664;23.240;2022-09-02T04:17:46;-9879.00;;;16.39;100.00
9460;BME280;4768;42.664;23.240;2022-09-02T04:20:13;-9878.28;;;16.36;100.00
9460;BME280;4768;42.664;23.240;2022-09-02T04:22:40;-9878.00;;;16.35;100.00
9460;BME280;4768;42.664;23.240;2022-09-02T04:25:08;-9878.84;;;16.38;100.00
9460;BME280;4768;42.664;23.240;2022-09-02T04:27:35;-9876.56;;;16.30;100.00
9460;BME280;4768;42.664;23.240;2022-09-02T04:30:03;-9880.28;;;16.43;100.00
9460;BME280;4768;42.664;23.240;2022-09-02T04:32:32;-9882.28;;;16.50;100.00
9460;BME280;4768;42.664;23.240;2022-09-02T04:34:59;-9883.56;;;16.54;100.00
9460;BME280;4768;42.664;23.240;2022-09-02T04:37:25;-9883.41;;;16.54;100.00
9460;BME280;4768;42.664;23.240;2022-09-02T04:39:53;-9883.97;;;16.56;100.00
9460;BME280;4768;42.664;23.240;2022-09-02T04:42:19;-9884.41;;;16.57;100.00
9460;BME280;4768;42.664;23.240;2022-09-02T04:44:46;-9883.13;;;16.53;100.00
9460;BME280;4768;42.664;23.240;2022-09-02T04:47:13;-9881.41;;;16.47;100.00
9460;BME280;4768;42.664;23.240;2022-09-02T04:49:41;-9881.28;;;16.46;100.00
9460;BME280;4768;42.664;23.240;2022-09-02T04:52:08;-9881.69;;;16.48;100.00
9460;BME280;4768;42.664;23.240;2022-09-02T04:54:36;-9882.28;;;16.50;100.00
9460;BME280;4768;42.664;23.240;2022-09-02T04:57:03;-9884.56;;;16.58;100.00
9460;BME280;4768;42.664;23.240;2022-09-02T04:59:30;-9884.84;;;16.59;100.00
9460;BME280;4768;42.664;23.240;2022-09-02T05:01:56;-9885.97;;;16.63;100.00
9460;BME280;4768;42.664;23.240;2022-09-02T05:04:23;-9886.53;;;16.65;100.00
9460;BME280;4768;42.664;23.240;2022-09-02T05:06:52;-9889.53;;;16.75;100.00
9460;BME280;4768;42.664;23.240;2022-09-02T05:09:22;-9890.81;;;16.80;100.00
9460;BME280;4768;42.664;23.240;2022-09-02T05:11:49;-9893.53;;;16.89;100.00
9460;BME280;4768;42.664;23.240;2022-09-02T05:14:16;-9892.81;;;16.87;100.00
9460;BME280;4768;42.664;23.240;2022-09-02T05:16:43;-9894.81;;;16.93;100.00
9460;BME280;4768;42.664;23.240;2022-09-02T05:19:10;-9896.22;;;16.98;100.00
9460;BME280;4768;42.664;23.240;2022-09-02T05:21:39;-9892.09;;;16.84;100.00
9460;BME280;4768;42.664;23.240;2022-09-02T05:24:08;-9893.09;;;16.88;100.00
9460;BME280;4768;42.664;23.240;2022-09-02T05:26:35;-9892.81;;;16.87;100.00
9460;BME280;4768;42.664;23.240;2022-09-02T05:29:02;-9892.53;;;16.86;100.00
9460;BME280;4768;42.664;23.240;2022-09-02T05:31:31;-9893.94;;;16.91;100.00
9460;BME280;4768;42.664;23.240;2022-09-02T05:33:58;-9895.09;;;16.94;100.00
9460;BME280;4768;42.664;23.240;2022-09-02T05:36:25;-9896.09;;;16.98;100.00
9460;BME280;4768;42.664;23.240;2022-09-02T05:38:52;-9895.53;;;16.96;100.00
9460;BME280;4768;42.664;23.240;2022-09-02T05:41:22;-9894.66;;;16.93;100.00
9460;BME280;4768;42.664;23.240;2022-09-02T05:43:50;-9896.81;;;17.00;100.00
9460;BME280;4768;42.664;23.240;2022-09-02T05:46:19;-9900.66;;;17.14;100.00
9460;BME280;4768;42.664;23.240;2022-09-02T05:48:48;-9898.09;;;17.05;100.00
9460;BME280;4768;42.664;23.240;2022-09-02T05:51:37;-9902.22;;;17.19;100.00
9460;BME280;4768;42.664;23.240;2022-09-02T05:54:07;-9901.66;;;17.17;100.00
9460;BME280;4768;42.664;23.240;2022-09-02T05:56:36;-9899.38;;;17.09;100.00
9460;BME280;4768;42.664;23.240;2022-09-02T05:59:03;-9901.78;;;17.18;100.00
9460;BME280;4768;42.664;23.240;2022-09-02T06:01:31;-9904.50;;;17.27;100.00
9460;BME280;4768;42.664;23.240;2022-09-02T06:03:58;-9906.06;;;17.33;100.00
9460;BME280;4768;42.664;23.240;2022-09-02T06:06:26;-9909.06;;;17.43;100.00
9460;BME280;4768;42.664;23.240;2022-09-02T06:08:53;-9909.50;;;17.44;100.00
9460;BME280;4768;42.664;23.240;2022-09-02T06:11:21;-9908.06;;;17.40;100.00
9460;BME280;4768;42.664;23.240;2022-09-02T06:13:49;-9910.34;;;17.47;100.00
9460;BME280;4768;42.664;23.240;2022-09-02T06:16:18;-9909.78;;;17.45;100.00
9460;BME280;4768;42.664;23.240;2022-09-02T06:18:45;-9914.91;;;17.63;100.00
9460;BME280;4768;42.664;23.240;2022-09-02T06:21:12;-9912.22;;;17.54;100.00
9460;BME280;4768;42.664;23.240;2022-09-02T06:23:40;-9914.78;;;17.63;100.00
9460;BME280;4768;42.664;23.240;2022-09-02T06:26:08;-9919.34;;;17.79;100.00
9460;BME280;4768;42.664;23.240;2022-09-02T06:28:35;-9922.47;;;17.90;100.00
9460;BME280;4768;42.664;23.240;2022-09-02T06:31:07;-9924.31;;;17.96;100.00
9460;BME280;4768;42.664;23.240;2022-09-02T06:33:35;-9922.19;;;17.89;100.00
9460;BME280;4768;42.664;23.240;2022-09-02T06:36:05;-9926.47;;;18.03;100.00
9460;BME280;4768;42.664;23.240;2022-09-02T06:38:36;-9929.59;;;18.14;100.00
9460;BME280;4768;42.664;23.240;2022-09-02T06:41:03;-9929.47;;;18.14;100.00
9460;BME280;4768;42.664;23.240;2022-09-02T06:43:30;-9931.75;;;18.22;100.00
9460;BME280;4768;42.664;23.240;2022-09-02T06:45:57;-9932.88;;;18.26;100.00
9460;BME280;4768;42.664;23.240;2022-09-02T06:48:25;-9932.75;;;18.25;100.00
9460;BME280;4768;42.664;23.240;2022-09-02T06:50:52;-9935.75;;;18.36;100.00
9460;BME280;4768;42.664;23.240;2022-09-02T06:53:20;-9939.16;;;18.47;100.00
9460;BME280;4768;42.664;23.240;2022-09-02T06:55:48;-9939.44;;;18.48;100.00
9460;BME280;4768;42.664;23.240;2022-09-02T06:58:14;-9938.31;;;18.44;100.00
9460;BME280;4768;42.664;23.240;2022-09-02T07:00:42;-9941.03;;;18.54;100.00
9460;BME280;4768;42.664;23.240;2022-09-02T07:03:09;-9945.16;;;18.68;100.00
9460;BME280;4768;42.664;23.240;2022-09-02T07:06:06;-9946.28;;;18.72;100.00
9460;BME280;4768;42.664;23.240;2022-09-02T07:08:35;-9948.44;;;18.80;100.00
9460;BME280;4768;42.664;23.240;2022-09-02T07:11:03;-9953.28;;;18.96;100.00
9460;BME280;4768;42.664;23.240;2022-09-02T07:13:30;-9952.28;;;18.93;100.00
9460;BME280;4768;42.664;23.240;2022-09-02T07:15:57;-9953.84;;;18.98;100.00
9460;BME280;4768;42.664;23.240;2022-09-02T07:18:23;-9950.88;;;18.88;100.00
9460;BME280;4768;42.664;23.240;2022-09-02T07:20:50;-9953.28;;;18.96;100.00
9460;BME280;4768;42.664;23.240;2022-09-02T07:23:19;-9958.16;;;19.13;100.00
9460;BME280;4768;42.664;23.240;2022-09-02T07:25:45;-9956.00;;;19.06;100.00
9460;BME280;4768;42.664;23.240;2022-09-02T07:28:12;-9956.72;;;19.08;100.00
9460;BME280;4768;42.664;23.240;2022-09-02T07:30:40;-9957.88;;;19.12;100.00
9460;BME280;4768;42.664;23.240;2022-09-02T07:33:07;-9956.44;;;19.07;100.00
9460;BME280;4768;42.664;23.240;2022-09-02T07:35:34;-9953.84;;;18.98;100.00
9460;BME280;4768;42.664;23.240;2022-09-02T07:38:01;-9958.44;;;19.14;100.00
9460;BME280;4768;42.664;23.240;2022-09-02T07:40:30;-9958.88;;;19.16;100.00
9460;BME280;4768;42.664;23.240;2022-09-02T07:42:57;-9965.28;;;19.38;100.00
9460;BME280;4768;42.664;23.240;2022-09-02T07:45:24;-9965.44;;;19.38;100.00
9460;BME280;4768;42.664;23.240;2022-09-02T07:47:51;-9963.44;;;19.32;100.00
9460;BME280;4768;42.664;23.240;2022-09-02T07:50:18;-9964.13;;;19.34;100.00
9460;BME280;4768;42.664;23.240;2022-09-02T07:52:45;-9962.44;;;19.28;100.00
9460;BME280;4768;42.664;23.240;2022-09-02T07:55:13;-9962.72;;;19.29;100.00
9460;BME280;4768;42.664;23.240;2022-09-02T07:57:41;-9965.56;;;19.39;100.00
9460;BME280;4768;42.664;23.240;2022-09-02T08:00:10;-9962.84;;;19.30;100.00
9460;BME280;4768;42.664;23.240;2022-09-02T08:02:38;-9968.13;;;19.48;100.00
9460;BME280;4768;42.664;23.240;2022-09-02T08:05:05;-9967.00;;;19.44;100.00
9460;BME280;4768;42.664;23.240;2022-09-02T08:07:32;-9967.28;;;19.45;100.00
9460;BME280;4768;42.664;23.240;2022-09-02T08:09:58;-9965.28;;;19.38;100.00
9460;BME280;4768;42.664;23.240;2022-09-02T08:12:25;-9965.56;;;19.39;100.00
9460;BME280;4768;42.664;23.240;2022-09-02T08:14:54;-9966.13;;;19.41;100.00
9460;BME280;4768;42.664;23.240;2022-09-02T08:17:23;-9965.56;;;19.39;100.00
9460;BME280;4768;42.664;23.240;2022-09-02T08:19:49;-9965.28;;;19.38;100.00
9460;BME280;4768;42.664;23.240;2022-09-02T08:22:16;-9966.13;;;19.41;100.00
9460;BME280;4768;42.664;23.240;2022-09-02T08:24:43;-9967.00;;;19.44;100.00
9460;BME280;4768;42.664;23.240;2022-09-02T08:27:09;-9963.28;;;19.31;100.00
9460;BME280;4768;42.664;23.240;2022-09-02T08:29:36;-9963.72;;;19.33;100.00
9460;BME280;4768;42.664;23.240;2022-09-02T08:32:04;-9967.56;;;19.46;100.00
9460;BME280;4768;42.664;23.240;2022-09-02T08:34:31;-9968.72;;;19.50;100.00
9460;BME280;4768;42.664;23.240;2022-09-02T08:36:58;-9967.44;;;19.45;100.00
9460;BME280;4768;42.664;23.240;2022-09-02T08:39:25;-9966.72;;;19.43;100.00
9460;BME280;4768;42.664;23.240;2022-09-02T08:42:00;-9963.72;;;19.33;100.00
9460;BME280;4768;42.664;23.240;2022-09-02T08:44:28;-9968.56;;;19.49;100.00
9460;BME280;4768;42.664;23.240;2022-09-02T08:46:57;-9969.72;;;19.53;100.00
9460;BME280;4768;42.664;23.240;2022-09-02T08:49:30;-9975.13;;;19.72;100.00
9460;BME280;4768;42.664;23.240;2022-09-02T08:52:03;-9974.13;;;19.69;100.00
9460;BME280;4768;42.664;23.240;2022-09-02T08:54:35;-9978.69;;;19.85;100.00
9460;BME280;4768;42.664;23.240;2022-09-02T08:57:06;-9977.00;;;19.79;100.00
9460;BME280;4768;42.664;23.240;2022-09-02T08:59:34;-9977.84;;;19.82;100.00
9460;BME280;4768;42.664;23.240;2022-09-02T09:02:08;-9974.84;;;19.71;100.00
9460;BME280;4768;42.664;23.240;2022-09-02T09:04:54;-9972.41;;;19.63;100.00
9460;BME280;4768;42.664;23.240;2022-09-02T09:07:28;-9972.41;;;19.63;100.00
9460;BME280;4768;42.664;23.240;2022-09-02T09:10:10;-9977.00;;;19.79;100.00
9460;BME280;4768;42.664;23.240;2022-09-02T09:13:03;-9974.84;;;19.71;100.00
9460;BME280;4768;42.664;23.240;2022-09-02T09:15:39;-9975.28;;;19.73;100.00
9460;BME280;4768;42.664;23.240;2022-09-02T09:18:12;-9975.13;;;19.72;100.00
9460;BME280;4768;42.664;23.240;2022-09-02T09:20:44;-9981.13;;;19.93;100.00
9460;BME280;4768;42.664;23.240;2022-09-02T09:23:27;-9980.84;;;19.92;100.00
9460;BME280;4768;42.664;23.240;2022-09-02T09:25:58;-9987.00;;;20.13;100.00
9460;BME280;4768;42.664;23.240;2022-09-02T09:28:30;-9990.69;;;20.26;100.00
9460;BME280;4768;42.664;23.240;2022-09-02T09:30:58;-9988.28;;;20.18;100.00
9460;BME280;4768;42.664;23.240;2022-09-02T09:33:25;-9992.69;;;20.33;100.00
9460;BME280;4768;42.664;23.240;2022-09-02T09:35:54;-9993.28;;;20.35;100.00
9460;BME280;4768;42.664;23.240;2022-09-02T09:38:30;-9990.84;;;20.27;100.00
9460;BME280;4768;42.664;23.240;2022-09-02T09:41:17;-9989.13;;;20.21;100.00
9460;BME280;4768;42.664;23.240;2022-09-02T09:43:46;-9984.41;;;20.04;100.00
9460;BME280;4768;42.664;23.240;2022-09-02T09:46:28;-9980.56;;;19.91;100.00
9460;BME280;4768;42.664;23.240;2022-09-02T09:48:56;-9991.00;;;20.27;100.00
9460;BME280;4768;42.664;23.240;2022-09-02T09:51:25;-9996.13;;;20.45;100.00
9460;BME280;4768;42.664;23.240;2022-09-02T09:53:51;-9998.69;;;20.54;100.00
9460;BME280;4768;42.664;23.240;2022-09-02T09:56:24;-10003.84;;;20.72;100.00
9460;BME280;4768;42.664;23.240;2022-09-02T09:58:52;-10007.84;;;20.86;100.00
9460;BME280;4768;42.664;23.240;2022-09-02T10:01:20;-10012.56;;;21.02;100.00
9460;BME280;4768;42.664;23.240;2022-09-02T10:03:49;-9999.13;;;20.55;100.00
9460;BME280;4768;42.664;23.240;2022-09-02T10:06:19;-9987.13;;;20.14;100.00
9460;BME280;4768;42.664;23.240;2022-09-02T10:08:53;-9991.13;;;20.28;100.00
9460;BME280;4768;42.664;23.240;2022-09-02T10:11:24;-9992.13;;;20.31;100.00
9460;BME280;4768;42.664;23.240;2022-09-02T10:13:56;-9988.28;;;20.18;100.00
9460;BME280;4768;42.664;23.240;2022-09-02T10:16:35;-9989.00;;;20.20;100.00
9460;BME280;4768;42.664;23.240;2022-09-02T10:19:14;-9995.28;;;20.42;100.00
9460;BME280;4768;42.664;23.240;2022-09-02T10:22:02;-9999.41;;;20.56;100.00
9460;BME280;4768;42.664;23.240;2022-09-02T10:24:47;-9998.28;;;20.52;100.00
9460;BME280;4768;42.664;23.240;2022-09-02T10:27:23;-10004.28;;;20.73;100.00
9460;BME280;4768;42.664;23.240;2022-09-02T10:29:59;-10004.28;;;20.73;100.00
9460;BME280;4768;42.664;23.240;2022-09-02T10:32:50;-10011.41;;;20.98;100.00
9460;BME280;4768;42.664;23.240;2022-09-02T10:35:24;-10000.41;;;20.60;100.00
9460;BME280;4768;42.664;23.240;2022-09-02T10:38:05;-10006.28;;;20.80;100.00
9460;BME280;4768;42.664;23.240;2022-09-02T10:40:39;-9993.84;;;20.37;100.00
9460;BME280;4768;42.664;23.240;2022-09-02T10:43:10;-9995.84;;;20.44;100.00
9460;BME280;4768;42.664;23.240;2022-09-02T10:45:45;-9999.13;;;20.55;100.00
9460;BME280;4768;42.664;23.240;2022-09-02T10:48:27;-9998.56;;;20.53;100.00
9460;BME280;4768;42.664;23.240;2022-09-02T10:51:01;-9998.97;;;20.55;100.00
9460;BME280;4768;42.664;23.240;2022-09-02T10:53:37;-10008.28;;;20.87;100.00
9460;BME280;4768;42.664;23.240;2022-09-02T10:56:11;-10006.13;;;20.80;100.00
9460;BME280;4768;42.664;23.240;2022-09-02T10:58:44;-10017.41;;;21.19;100.00
9460;BME280;4768;42.664;23.240;2022-09-02T11:01:18;-10025.84;;;21.48;100.00
9460;BME280;4768;42.664;23.240;2022-09-02T11:03:56;-10032.56;;;21.71;100.00
9460;BME280;4768;42.664;23.240;2022-09-02T11:06:26;-8995.34;;;21.99;100.00
9460;BME280;4768;42.664;23.240;2022-09-02T11:08:57;-6555.91;;;21.82;100.00
9460;BME280;4768;42.664;23.240;2022-09-02T11:11:30;-3766.38;;;21.56;100.00
9460;BME280;4768;42.664;23.240;2022-09-02T11:14:03;-5861.69;;;21.89;100.00
9460;BME280;4768;42.664;23.240;2022-09-02T11:16:39;-6554.28;;;21.75;100.00
9460;BME280;4768;42.664;23.240;2022-09-02T11:19:13;-6555.69;;;21.81;100.00
9460;BME280;4768;42.664;23.240;2022-09-02T11:21:49;-4123.31;;;22.02;100.00
9460;BME280;4768;42.664;23.240;2022-09-02T11:24:23;-5868.75;;;22.21;100.00
9460;BME280;4768;42.664;23.240;2022-09-02T11:26:58;-4827.59;;;22.39;100.00
9460;BME280;4768;42.664;23.240;2022-09-02T11:29:33;64.63;;;21.59;100.00
9460;BME280;4768;42.664;23.240;2022-09-02T11:32:09;-4472.41;;;22.06;100.00
9460;BME280;4768;42.664;23.240;2022-09-02T11:34:41;-5866.97;;;22.13;100.00
9460;BME280;4768;42.664;23.240;2022-09-02T11:37:12;-4815.81;;;21.82;100.00
9460;BME280;4768;42.664;23.240;2022-09-02T11:39:43;-4820.59;;;22.05;100.00
9460;BME280;4768;42.664;23.240;2022-09-02T11:42:25;-3071.41;;;21.64;100.00
9460;BME280;4768;42.664;23.240;2022-09-02T11:45:16;-3071.34;;;21.63;100.00
9460;BME280;4768;42.664;23.240;2022-09-02T11:51:01;-4113.69;;;21.52;100.00
9460;BME280;4768;42.664;23.240;2022-09-02T11:53:35;-5163.94;;;21.82;100.00
9460;BME280;4768;42.664;23.240;2022-09-02T11:56:07;-2723.78;;;21.67;100.00
9460;BME280;4768;42.664;23.240;2022-09-02T11:58:40;-2030.50;;;21.88;100.00
9460;BME280;4768;42.664;23.240;2022-09-02T12:01:27;-990.97;;;22.30;100.00
9460;BME280;4768;42.664;23.240;2022-09-02T12:03:59;1104.75;;;22.10;100.00
9460;BME280;4768;42.664;23.240;2022-09-02T12:06:26;2152.25;;;22.04;100.00
9460;BME280;4768;42.664;23.240;2022-09-02T12:09:05;1101.34;;;22.41;100.00
9460;BME280;4768;42.664;23.240;2022-09-02T12:11:49;2846.13;;;22.55;100.00
9460;BME280;4768;42.664;23.240;2022-09-02T12:17:44;7740.78;;;22.67;100.00
9460;BME280;4768;42.664;23.240;2022-09-02T12:26:18;3194.84;;;22.64;100.00
9460;BME280;4768;42.664;23.240;2022-09-02T12:28:45;3892.81;;;22.79;100.00
9460;BME280;4768;42.664;23.240;2022-09-02T12:31:15;5991.28;;;22.74;100.00
9460;BME280;4768;42.664;23.240;2022-09-02T12:33:47;3890.59;;;23.13;100.00
9460;BME280;4768;42.664;23.240;2022-09-02T12:36:44;10894.06;;;23.15;100.00
9460;BME280;4768;42.664;23.240;2022-09-02T12:42:26;11943.94;;;22.84;100.00
9460;BME280;4768;42.664;23.240;2022-09-02T12:45:03;8090.72;;;22.44;100.00
9460;BME280;4768;42.664;23.240;2022-09-02T12:47:41;4593.03;;;22.62;100.00
9460;BME280;4768;42.664;23.240;2022-09-02T12:50:22;7390.91;;;22.60;100.00
9460;BME280;4768;42.664;23.240;2022-09-02T12:53:06;9140.44;;;22.44;100.00
9460;BME280;4768;42.664;23.240;2022-09-02T12:55:34;6341.91;;;22.43;100.00
9460;BME280;4768;42.664;23.240;2022-09-02T12:58:07;6691.91;;;22.28;100.00
9460;BME280;4768;42.664;23.240;2022-09-02T13:00:44;3896.94;;;22.16;100.00
9460;BME280;4768;42.664;23.240;2022-09-02T13:03:41;4246.09;;;22.18;100.00
9460;BME280;4768;42.664;23.240;2022-09-02T13:06:19;4944.69;;;22.20;100.00
9460;BME280;4768;42.664;23.240;2022-09-02T13:09:07;4944.59;;;22.22;100.00
9460;BME280;4768;42.664;23.240;2022-09-02T13:12:18;3547.78;;;22.15;100.00
9460;BME280;4768;42.664;23.240;2022-09-02T13:15:26;-1332.81;;;21.84;100.00
9460;BME280;4768;42.664;23.240;2022-09-02T13:18:23;-4469.03;;;21.89;100.00
9460;BME280;4768;42.664;23.240;2022-09-02T13:21:23;-8639.50;;;21.69;100.00
9460;BME280;4768;42.664;23.240;2022-09-02T13:24:22;-10001.84;;;20.65;100.00
9460;BME280;4768;42.664;23.240;2022-09-02T13:30:03;-9955.56;;;19.04;100.00
9460;BME280;4768;42.664;23.240;2022-09-02T13:32:31;-9956.44;;;19.07;100.00
9460;BME280;4768;42.664;23.240;2022-09-02T13:35:02;-9958.56;;;19.15;100.00
9460;BME280;4768;42.664;23.240;2022-09-02T13:37:33;-9956.44;;;19.07;100.00